createdAt,value
2018-03-24T00:00:10.175Z,28.73
2018-03-24T00:02:40.001Z,30.97
2018-03-24T00:05:09.068Z,30.70
2018-03-24T00:07:38.879Z,29.80
2018-03-24T00:10:07.970Z,31.07
2018-03-24T00:12:37.029Z,30.40
2018-03-24T00:15:06.064Z,29.33
2018-03-24T00:17:35.905Z,29.30
2018-03-24T00:20:04.954Z,30.40
2018-03-24T00:22:34.029Z,28.80
2018-03-24T00:25:03.053Z,30.23
2018-03-24T00:27:32.906Z,29.97
2018-03-24T00:30:01.975Z,30.23
2018-03-24T00:32:31.788Z,30.33
2018-03-24T00:35:01.614Z,26.00
2018-03-24T00:37:30.654Z,26.73
2018-03-24T00:39:59.737Z,26.60
2018-03-24T00:42:28.779Z,28.10
2018-03-24T00:44:58.598Z,30.50
2018-03-24T00:47:28.437Z,29.40
2018-03-24T00:49:57.494Z,31.20
2018-03-24T00:52:27.362Z,30.40
2018-03-24T00:54:57.125Z,33.93
2018-03-24T00:57:26.959Z,31.73
2018-03-24T00:59:55.998Z,31.30
2018-03-24T01:02:25.070Z,30.47
2018-03-24T01:04:54.107Z,32.43
2018-03-24T01:07:23.181Z,31.10
2018-03-24T01:09:52.223Z,31.23
2018-03-24T01:12:21.297Z,30.70
2018-03-24T01:14:51.154Z,29.60
2018-03-24T01:17:20.185Z,30.30
2018-03-24T01:19:49.265Z,30.40
2018-03-24T01:22:18.306Z,32.23
2018-03-24T01:24:47.351Z,32.10
2018-03-24T01:27:16.441Z,30.60
2018-03-24T01:29:45.509Z,36.40
2018-03-24T01:32:14.587Z,31.80
2018-03-24T01:34:44.415Z,31.80
2018-03-24T01:37:13.465Z,33.00
2018-03-24T01:39:42.554Z,34.17
2018-03-24T01:42:11.605Z,31.80
2018-03-24T01:44:40.674Z,30.30
2018-03-24T01:47:09.734Z,31.50
2018-03-24T01:49:38.802Z,31.03
2018-03-24T01:52:07.909Z,31.60
2018-03-24T01:54:36.945Z,33.50
2018-03-24T01:57:05.996Z,32.20
2018-03-24T01:59:35.077Z,29.93
2018-03-24T02:02:04.126Z,28.30
2018-03-24T02:04:33.958Z,28.93
2018-03-24T02:07:03.019Z,31.60
2018-03-24T02:09:32.082Z,32.00
2018-03-24T02:12:01.130Z,32.93
2018-03-24T02:14:30.206Z,31.27
2018-03-24T02:16:59.257Z,34.37
2018-03-24T02:19:28.340Z,33.23
2018-03-24T02:21:57.399Z,32.50
2018-03-24T02:24:26.464Z,32.63
2018-03-24T02:26:55.498Z,32.50
2018-03-24T02:29:24.583Z,31.93
2018-03-24T02:31:54.386Z,31.27
2018-03-24T02:34:24.249Z,31.30
2018-03-24T02:36:53.299Z,32.03
2018-03-24T02:39:23.101Z,34.40
2018-03-24T02:41:52.953Z,32.43
2018-03-24T02:44:22.056Z,30.83
2018-03-24T02:46:51.127Z,32.50
2018-03-24T02:49:20.949Z,34.67
2018-03-24T02:51:50.007Z,33.43
2018-03-24T02:54:19.064Z,33.93
2018-03-24T02:56:48.141Z,32.60
2018-03-24T02:59:17.181Z,34.90
2018-03-24T03:01:46.256Z,34.07
2018-03-24T03:04:15.314Z,32.87
2018-03-24T03:06:44.386Z,33.20
2018-03-24T03:09:14.250Z,36.60
2018-03-24T03:11:43.303Z,33.40
2018-03-24T03:14:12.369Z,33.50
2018-03-24T03:16:41.439Z,33.60
2018-03-24T03:19:10.504Z,34.50
2018-03-24T03:21:56.443Z,32.33
2018-03-24T03:24:25.487Z,31.80
2018-03-24T03:26:54.531Z,30.00
2018-03-24T03:29:23.613Z,32.87
2018-03-24T03:31:57.610Z,32.67
2018-03-24T03:34:26.681Z,33.87
2018-03-24T03:36:55.729Z,32.93
2018-03-24T03:39:24.790Z,32.17
2018-03-24T03:41:53.838Z,34.13
2018-03-24T03:44:22.901Z,34.17
2018-03-24T03:46:51.974Z,33.13
2018-03-24T03:49:21.024Z,35.93
2018-03-24T03:51:50.945Z,31.03
2018-03-24T03:54:20.005Z,34.00
2018-03-24T03:56:49.029Z,35.43
2018-03-24T03:59:18.109Z,31.60
2018-03-24T04:01:47.932Z,33.97
2018-03-24T04:04:17.778Z,34.83
2018-03-24T04:06:46.857Z,30.27
2018-03-24T04:09:15.938Z,31.87
2018-03-24T04:11:45.747Z,32.20
2018-03-24T04:14:15.087Z,32.07
2018-03-24T04:16:44.175Z,33.93
2018-03-24T04:19:13.208Z,32.20
2018-03-24T04:21:42.287Z,33.00
2018-03-24T04:24:11.334Z,29.60
2018-03-24T04:26:40.381Z,31.93
2018-03-24T04:29:09.476Z,29.73
2018-03-24T04:31:38.524Z,30.10
2018-03-24T04:34:08.354Z,28.97
2018-03-24T04:36:37.432Z,30.00
2018-03-24T04:39:06.483Z,28.47
2018-03-24T04:41:35.545Z,31.50
2018-03-24T04:44:04.594Z,30.00
2018-03-24T04:46:34.423Z,31.27
2018-03-24T04:49:03.494Z,28.40
2018-03-24T04:51:33.301Z,27.43
2018-03-24T04:54:03.146Z,29.23
2018-03-24T04:56:32.193Z,31.90
2018-03-24T04:59:01.237Z,32.00
2018-03-24T05:01:30.315Z,32.30
2018-03-24T05:04:00.166Z,32.80
2018-03-24T05:06:29.951Z,32.53
2018-03-24T05:08:59.025Z,100.53
2018-03-24T05:11:28.837Z,77.63
2018-03-24T05:13:58.686Z,76.47
2018-03-24T05:16:27.731Z,41.03
2018-03-24T05:18:56.805Z,33.20
2018-03-24T05:21:25.841Z,32.73
2018-03-24T05:23:54.893Z,34.03
2018-03-24T05:26:23.972Z,32.47
2018-03-24T05:28:53.024Z,34.37
2018-03-24T05:31:22.872Z,32.30
2018-03-24T05:33:51.911Z,31.73
2018-03-24T05:36:21.767Z,33.50
2018-03-24T05:38:50.812Z,31.87
2018-03-24T05:41:19.887Z,33.17
2018-03-24T05:43:48.914Z,31.23
2018-03-24T05:46:18.751Z,30.93
2018-03-24T05:48:47.795Z,29.63
2018-03-24T05:51:16.880Z,31.20
2018-03-24T05:53:45.918Z,30.03
2018-03-24T05:56:15.751Z,31.20
2018-03-24T05:58:44.808Z,29.00
2018-03-24T06:01:13.885Z,29.20
2018-03-24T06:03:42.934Z,30.03
2018-03-24T06:06:11.998Z,28.40
2018-03-24T06:08:41.833Z,30.43
2018-03-24T06:11:10.889Z,29.23
2018-03-24T06:13:39.954Z,26.57
2018-03-24T06:16:09.037Z,32.00
2018-03-24T06:18:38.086Z,26.10
2018-03-24T06:21:07.922Z,26.90
2018-03-24T06:23:36.959Z,27.27
2018-03-24T06:26:06.029Z,26.90
2018-03-24T06:28:35.101Z,26.40
2018-03-24T06:31:15.018Z,27.80
2018-03-24T06:33:44.119Z,25.50
2018-03-24T06:36:13.186Z,25.40
2018-03-24T06:38:42.251Z,26.90
2018-03-24T06:41:11.333Z,26.00
2018-03-24T06:43:40.378Z,25.07
2018-03-24T06:46:09.464Z,26.10
2018-03-24T06:48:39.293Z,23.83
2018-03-24T06:51:08.359Z,22.90
2018-03-24T06:53:37.397Z,24.30
2018-03-24T06:56:06.472Z,27.23
2018-03-24T06:58:35.539Z,30.13
2018-03-24T07:01:04.567Z,25.97
2018-03-24T07:03:33.594Z,21.37
2018-03-24T07:06:02.682Z,24.13
2018-03-24T07:08:32.482Z,24.57
2018-03-24T07:11:01.510Z,24.10
2018-03-24T07:13:30.570Z,32.30
2018-03-24T07:16:00.363Z,44.30
2018-03-24T07:18:29.420Z,45.03
2018-03-24T07:20:58.452Z,31.90
2018-03-24T07:23:27.506Z,25.10
2018-03-24T07:25:56.577Z,27.63
2018-03-24T07:28:25.609Z,26.83
2018-03-24T07:30:54.641Z,28.17
2018-03-24T07:33:23.695Z,28.17
2018-03-24T07:35:52.754Z,22.53
2018-03-24T07:38:21.810Z,27.40
2018-03-24T07:40:50.865Z,27.60
2018-03-24T07:43:19.922Z,28.00
2018-03-24T07:45:49.746Z,27.20
2018-03-24T07:48:19.530Z,27.87
2018-03-24T07:50:48.602Z,27.10
2018-03-24T07:53:17.662Z,29.03
2018-03-24T07:55:46.722Z,28.07
2018-03-24T07:58:15.745Z,29.50
2018-03-24T08:00:44.801Z,27.37
2018-03-24T08:03:13.829Z,27.40
2018-03-24T08:05:42.881Z,29.37
2018-03-24T08:08:11.915Z,26.37
2018-03-24T08:10:40.973Z,29.30
2018-03-24T08:13:10.005Z,26.43
2018-03-24T08:15:39.060Z,39.90
2018-03-24T08:18:08.117Z,35.00
2018-03-24T08:20:37.146Z,32.40
2018-03-24T08:23:06.205Z,28.43
2018-03-24T08:25:35.245Z,26.97
2018-03-24T08:28:04.261Z,27.70
2018-03-24T08:30:33.322Z,28.33
2018-03-24T08:33:02.383Z,26.27
2018-03-24T08:35:31.421Z,24.83
2018-03-24T08:38:00.476Z,26.40
2018-03-24T08:40:29.526Z,35.40
2018-03-24T08:42:59.357Z,28.00
2018-03-24T08:45:28.395Z,25.50
2018-03-24T08:47:57.446Z,19.87
2018-03-24T08:50:26.470Z,22.90
2018-03-24T08:52:55.525Z,27.47
2018-03-24T08:55:24.598Z,39.27
2018-03-24T08:57:53.609Z,25.03
2018-03-24T09:00:23.403Z,25.90
2018-03-24T09:02:53.236Z,24.83
2018-03-24T09:05:22.259Z,20.00
2018-03-24T09:07:51.296Z,18.53
2018-03-24T09:10:20.351Z,16.47
2018-03-24T09:12:49.374Z,16.27
2018-03-24T09:15:18.434Z,16.93
2018-03-24T09:17:47.460Z,19.83
2018-03-24T09:20:16.520Z,17.40
2018-03-24T09:22:45.553Z,16.30
2018-03-24T09:25:14.610Z,13.87
2018-03-24T09:27:43.639Z,14.60
2018-03-24T09:30:12.683Z,14.93
2018-03-24T09:32:41.729Z,13.00
2018-03-24T09:35:10.756Z,12.10
2018-03-24T09:37:39.830Z,14.10
2018-03-24T09:40:09.622Z,14.30
2018-03-24T09:42:38.696Z,14.33
2018-03-24T09:45:07.722Z,14.60
2018-03-24T09:47:36.769Z,13.70
2018-03-24T09:50:05.806Z,14.30
2018-03-24T09:52:34.857Z,13.93
2018-03-24T09:55:03.893Z,12.10
2018-03-24T09:57:32.917Z,13.20
2018-03-24T10:00:01.989Z,11.37
2018-03-24T10:02:31.013Z,12.03
2018-03-24T10:05:00.092Z,10.40
2018-03-24T10:07:29.882Z,10.63
2018-03-24T10:09:58.948Z,10.50
2018-03-24T10:12:28.807Z,10.87
2018-03-24T10:14:58.624Z,10.93
2018-03-24T10:17:28.422Z,9.97
2018-03-24T10:19:58.302Z,10.57
2018-03-24T10:36:08.737Z,9.43
2018-03-24T10:38:37.804Z,8.10
2018-03-24T10:41:06.864Z,10.13
2018-03-24T10:43:39.868Z,13.57
2018-03-24T10:46:08.845Z,14.23
2018-03-24T10:48:37.933Z,14.70
2018-03-24T10:51:06.956Z,13.97
2018-03-24T10:53:36.806Z,14.80
2018-03-24T10:56:05.846Z,13.47
2018-03-24T10:58:36.013Z,12.90
2018-03-24T11:01:20.614Z,13.63
2018-03-24T11:03:49.656Z,15.20
2018-03-24T11:06:18.726Z,14.07
2018-03-24T11:08:48.529Z,13.53
2018-03-24T11:11:18.772Z,16.63
2018-03-24T11:13:47.785Z,15.53
2018-03-24T11:16:16.828Z,14.40
2018-03-24T11:18:45.895Z,13.40
2018-03-24T11:21:14.958Z,12.67
2018-03-24T11:23:44.019Z,12.47
2018-03-24T11:26:13.054Z,10.17
2018-03-24T11:28:42.129Z,9.40
2018-03-24T11:31:11.164Z,16.83
2018-03-24T11:33:40.197Z,11.67
2018-03-24T11:36:10.022Z,9.90
2018-03-24T11:38:39.846Z,9.63
2018-03-24T11:41:08.946Z,11.30
2018-03-24T11:43:38.062Z,10.43
2018-03-24T11:46:07.097Z,12.63
2018-03-24T11:48:36.249Z,10.43
2018-03-24T11:51:05.321Z,9.67
2018-03-24T11:53:45.713Z,9.20
2018-03-24T11:56:14.811Z,10.10
2018-03-24T11:58:44.601Z,10.70
2018-03-24T12:01:13.631Z,9.80
2018-03-24T12:03:42.689Z,9.63
2018-03-24T12:06:11.745Z,10.67
2018-03-24T12:08:40.777Z,9.77
2018-03-24T12:11:09.858Z,9.90
2018-03-24T12:13:38.913Z,10.50
2018-03-24T12:16:07.950Z,9.23
2018-03-24T12:18:36.977Z,9.10
2018-03-24T12:21:06.039Z,10.03
2018-03-24T12:23:35.101Z,9.07
2018-03-24T12:26:04.901Z,9.90
2018-03-24T12:28:33.976Z,10.50
2018-03-24T12:31:03.017Z,10.60
2018-03-24T12:33:32.845Z,11.23
2018-03-24T12:36:01.926Z,25.10
2018-03-24T12:38:31.732Z,14.33
2018-03-24T12:41:01.582Z,14.47
2018-03-24T12:43:30.650Z,21.60
2018-03-24T12:46:00.469Z,23.20
2018-03-24T12:48:29.521Z,13.37
2018-03-24T12:50:58.597Z,11.13
2018-03-24T12:53:27.675Z,10.13
2018-03-24T12:55:56.745Z,11.60
2018-03-24T12:58:25.797Z,11.10
2018-03-24T13:00:54.862Z,12.63
2018-03-24T13:03:23.936Z,13.67
2018-03-24T13:05:52.977Z,13.20
2018-03-24T13:08:22.066Z,14.07
2018-03-24T13:10:51.169Z,13.23
2018-03-24T13:13:20.227Z,12.27
2018-03-24T13:15:49.269Z,12.50
2018-03-24T13:18:18.420Z,33.07
2018-03-24T13:20:47.507Z,12.47
2018-03-24T13:23:16.591Z,13.67
2018-03-24T13:25:45.645Z,13.20
2018-03-24T13:28:14.686Z,12.47
2018-03-24T13:30:46.556Z,13.37
2018-03-24T13:33:15.589Z,12.23
2018-03-24T13:35:44.669Z,12.83
2018-03-24T13:38:13.714Z,22.97
2018-03-24T13:40:42.800Z,12.73
2018-03-24T13:43:12.614Z,13.00
2018-03-24T13:45:42.443Z,11.47
2018-03-24T13:48:11.518Z,12.23
2018-03-24T13:50:41.343Z,12.70
2018-03-24T13:53:10.400Z,11.10
2018-03-24T13:55:39.468Z,11.87
2018-03-24T13:58:08.510Z,11.30
2018-03-24T14:00:38.346Z,11.80
2018-03-24T14:03:07.417Z,11.83
2018-03-24T14:05:37.240Z,12.23
2018-03-24T14:08:06.302Z,35.27
2018-03-24T14:10:35.359Z,13.13
2018-03-24T14:13:04.421Z,10.73
2018-03-24T14:15:33.460Z,10.83
2018-03-24T14:18:02.599Z,11.87
2018-03-24T14:20:31.621Z,10.87
2018-03-24T14:23:00.692Z,10.40
2018-03-24T14:25:30.496Z,10.27
2018-03-24T14:28:00.333Z,9.83
2018-03-24T14:30:29.374Z,11.20
2018-03-24T14:32:58.459Z,9.93
2018-03-24T14:35:27.528Z,10.27
2018-03-24T14:37:56.570Z,10.50
2018-03-24T14:40:25.615Z,11.13
2018-03-24T14:42:54.654Z,10.60
2018-03-24T14:45:23.744Z,10.30
2018-03-24T14:47:52.773Z,29.63
2018-03-24T14:50:22.580Z,23.00
2018-03-24T14:52:54.592Z,9.80
2018-03-24T14:55:23.621Z,10.23
2018-03-24T14:57:52.689Z,11.30
2018-03-24T15:00:21.722Z,9.93
2018-03-24T15:02:51.557Z,10.10
2018-03-24T15:05:20.607Z,10.40
2018-03-24T15:07:49.657Z,10.87
2018-03-24T15:10:18.703Z,10.30
2018-03-24T15:12:47.969Z,10.97
2018-03-24T15:15:17.033Z,10.80
2018-03-24T15:17:46.084Z,17.27
2018-03-24T15:20:15.145Z,17.17
2018-03-24T15:22:44.216Z,11.93
2018-03-24T15:25:13.283Z,29.63
2018-03-24T15:27:42.367Z,11.50
2018-03-24T15:30:29.055Z,9.17
2018-03-24T15:33:15.858Z,10.60
2018-03-24T15:36:02.677Z,10.50
2018-03-24T15:38:31.722Z,10.20
2018-03-24T15:41:01.558Z,25.20
2018-03-24T15:43:30.610Z,42.13
2018-03-24T15:46:00.444Z,49.77
2018-03-24T15:48:30.277Z,22.87
2018-03-24T15:50:59.382Z,33.00
2018-03-24T15:53:29.166Z,11.30
2018-03-24T15:55:58.217Z,10.83
2018-03-24T15:58:27.323Z,10.00
2018-03-24T16:00:56.437Z,10.40
2018-03-24T16:03:25.450Z,9.63
2018-03-24T16:05:54.534Z,10.40
2018-03-24T16:08:24.384Z,9.57
2018-03-24T16:10:53.522Z,9.90
2018-03-24T16:13:22.755Z,9.97
2018-03-24T16:15:52.770Z,9.63
2018-03-24T16:18:22.775Z,20.90
2018-03-24T16:20:52.085Z,17.97
2018-03-24T16:23:22.114Z,9.90
2018-03-24T16:25:51.438Z,9.83
2018-03-24T16:28:20.756Z,10.17
2018-03-24T16:30:50.083Z,10.53
2018-03-24T16:33:19.380Z,12.57
2018-03-24T16:35:48.704Z,21.70
2018-03-24T16:38:18.737Z,19.40
2018-03-24T16:40:48.027Z,18.47
2018-03-24T16:43:18.123Z,19.00
2018-03-24T16:45:47.423Z,20.07
2018-03-24T16:48:16.776Z,20.93
2018-03-24T16:50:46.114Z,21.27
2018-03-24T16:53:15.410Z,20.60
2018-03-24T16:55:44.713Z,21.57
2018-03-24T16:58:14.027Z,20.40
2018-03-24T17:00:43.321Z,21.03
2018-03-24T17:03:12.648Z,21.50
2018-03-24T17:05:42.772Z,22.57
2018-03-24T17:08:12.059Z,22.37
2018-03-24T17:10:42.119Z,27.03
2018-03-24T17:13:11.444Z,38.40
2018-03-24T17:15:40.778Z,24.60
2018-03-24T17:18:10.816Z,21.40
2018-03-24T17:20:40.161Z,20.97
2018-03-24T17:23:09.464Z,23.03
2018-03-24T17:25:38.822Z,21.33
2018-03-24T17:28:08.130Z,21.23
2018-03-24T17:30:37.453Z,22.33
2018-03-24T17:33:06.776Z,23.43
2018-03-24T17:35:36.104Z,23.60
2018-03-24T17:38:06.206Z,21.90
2018-03-24T17:40:35.530Z,21.57
2018-03-24T17:43:04.894Z,21.03
2018-03-24T17:45:34.197Z,21.30
2018-03-24T17:48:03.590Z,22.70
2018-03-24T17:50:33.820Z,21.93
2018-03-24T17:53:03.148Z,21.17
2018-03-24T17:55:33.227Z,23.10
2018-03-24T17:58:02.576Z,21.73
2018-03-24T18:00:32.658Z,20.83
2018-03-24T18:03:01.979Z,22.37
2018-03-24T18:05:32.078Z,22.30
2018-03-24T18:08:01.393Z,20.87
2018-03-24T18:10:31.497Z,21.90
2018-03-24T18:13:00.805Z,22.70
2018-03-24T18:15:30.157Z,22.10
2018-03-24T18:17:59.524Z,22.30
2018-03-24T18:20:29.646Z,22.27
2018-03-24T18:22:59.051Z,21.60
2018-03-24T18:25:29.144Z,22.33
2018-03-24T18:27:58.491Z,23.17
2018-03-24T18:30:27.808Z,23.43
2018-03-24T18:32:57.150Z,23.90
2018-03-24T18:35:26.469Z,22.77
2018-03-24T18:37:56.613Z,21.83
2018-03-24T18:40:25.946Z,23.00
2018-03-24T18:42:55.262Z,25.00
2018-03-24T18:45:24.626Z,25.10
2018-03-24T18:47:53.984Z,22.40
2018-03-24T18:50:24.078Z,36.73
2018-03-24T18:52:53.413Z,35.87
2018-03-24T18:55:23.496Z,32.87
2018-03-24T18:57:52.838Z,20.90
2018-03-24T19:00:22.184Z,20.47
2018-03-24T19:02:51.530Z,21.90
2018-03-24T19:05:21.601Z,22.90
2018-03-24T19:07:50.946Z,34.03
2018-03-24T19:10:21.030Z,26.03
2018-03-24T19:12:50.373Z,21.73
2018-03-24T19:15:20.460Z,21.57
2018-03-24T19:17:49.782Z,21.20
2018-03-24T19:20:19.894Z,19.70
2018-03-24T19:22:49.234Z,20.07
2018-03-24T19:25:18.575Z,20.13
2018-03-24T19:27:47.882Z,20.43
2018-03-24T19:30:17.223Z,20.17
2018-03-24T19:32:46.536Z,20.33
2018-03-24T19:35:15.875Z,19.17
2018-03-24T19:37:45.166Z,18.10
2018-03-24T19:40:15.265Z,19.30
2018-03-24T19:42:44.587Z,19.97
2018-03-24T19:45:13.929Z,18.20
2018-03-24T19:47:44.031Z,19.40
2018-03-24T19:50:13.341Z,19.50
2018-03-24T19:52:42.805Z,19.33
2018-03-24T19:55:12.125Z,17.03
2018-03-24T19:57:41.452Z,18.40
2018-03-24T20:00:12.192Z,17.53
2018-03-24T20:02:42.247Z,18.50
2018-03-24T20:05:11.603Z,17.20
2018-03-24T20:07:41.716Z,18.50
2018-03-24T20:10:11.047Z,18.97
2018-03-24T20:12:40.353Z,17.37
2018-03-24T20:15:09.679Z,18.93
2018-03-24T20:17:38.999Z,18.07
2018-03-24T20:20:08.320Z,19.50
2018-03-24T20:22:37.624Z,18.60
2018-03-24T20:25:07.838Z,19.67
2018-03-24T20:27:37.170Z,43.47
2018-03-24T20:30:06.492Z,31.20
2018-03-24T20:32:35.827Z,19.57
2018-03-24T20:35:05.156Z,18.30
2018-03-24T20:37:34.459Z,19.00
2018-03-24T20:40:04.574Z,19.73
2018-03-24T20:42:34.669Z,17.97
2018-03-24T20:45:04.008Z,19.20
2018-03-24T20:47:33.350Z,18.40
2018-03-24T20:50:02.691Z,20.00
2018-03-24T20:52:32.749Z,20.23
2018-03-24T20:55:02.073Z,18.50
2018-03-24T20:57:31.386Z,19.97
2018-03-24T21:00:00.651Z,18.63
2018-03-24T21:02:29.832Z,18.23
2018-03-24T21:04:59.074Z,18.00
2018-03-24T21:07:28.171Z,19.07
2018-03-24T21:09:57.396Z,19.73
2018-03-24T21:12:27.380Z,20.20
2018-03-24T21:14:56.527Z,19.23
2018-03-24T21:17:25.724Z,20.17
2018-03-24T21:19:54.786Z,20.40
2018-03-24T21:22:23.909Z,20.70
2018-03-24T21:24:53.174Z,19.20
2018-03-24T21:27:22.175Z,19.57
2018-03-24T21:29:52.182Z,19.77
2018-03-24T21:32:22.018Z,20.07
2018-03-24T21:34:51.107Z,18.90
2018-03-24T21:37:20.116Z,20.37
2018-03-24T21:39:49.164Z,19.93
2018-03-24T21:42:18.194Z,21.10
2018-03-24T21:44:47.239Z,19.23
2018-03-24T21:47:16.290Z,20.37
2018-03-24T21:49:45.331Z,19.67
2018-03-24T21:52:14.341Z,19.50
2018-03-24T21:54:44.166Z,18.70
2018-03-24T21:57:13.952Z,20.73
2018-03-24T21:59:42.982Z,19.87
2018-03-24T22:02:12.009Z,19.67
2018-03-24T22:04:41.038Z,19.30
2018-03-24T22:07:10.098Z,21.07
2018-03-24T22:09:39.117Z,21.10
2018-03-24T22:12:08.147Z,20.60
2018-03-24T22:14:37.205Z,19.40
2018-03-24T22:17:06.227Z,19.90
2018-03-24T22:19:36.013Z,20.80
2018-03-24T22:22:05.065Z,21.23
2018-03-24T22:24:34.097Z,21.30
2018-03-24T22:27:03.136Z,20.77
2018-03-24T22:29:32.194Z,20.13
2018-03-24T22:32:01.449Z,21.67
2018-03-24T22:34:30.484Z,22.90
2018-03-24T22:36:59.521Z,20.80
2018-03-24T22:39:28.546Z,21.27
2018-03-24T22:41:57.580Z,21.00
2018-03-24T22:44:26.629Z,20.93
2018-03-24T22:46:55.657Z,21.53
2018-03-24T22:49:24.707Z,20.60
2018-03-24T22:51:53.739Z,21.53
2018-03-24T22:54:22.795Z,23.00
2018-03-24T22:56:51.836Z,20.87
2018-03-24T22:59:21.657Z,21.70
2018-03-24T23:01:51.480Z,22.67
2018-03-24T23:04:21.269Z,20.77
2018-03-24T23:06:51.105Z,22.20
2018-03-24T23:09:20.138Z,19.67
2018-03-24T23:11:49.174Z,21.03
2018-03-24T23:14:18.993Z,23.60
2018-03-24T23:16:48.790Z,21.50
2018-03-24T23:19:17.839Z,21.37
2018-03-24T23:21:46.866Z,20.20
2018-03-24T23:24:15.926Z,21.10
2018-03-24T23:26:44.953Z,21.43
2018-03-24T23:29:14.009Z,22.17
2018-03-24T23:31:43.057Z,22.73
2018-03-24T23:34:12.845Z,22.40
2018-03-24T23:36:41.914Z,22.97
2018-03-24T23:39:10.933Z,20.37
2018-03-24T23:41:39.994Z,21.43
2018-03-24T23:44:09.069Z,20.57
2018-03-24T23:46:38.101Z,20.90
2018-03-24T23:49:07.125Z,23.83
2018-03-24T23:51:36.180Z,19.70
2018-03-24T23:54:05.207Z,22.60
2018-03-24T23:56:34.264Z,23.40
2018-03-24T23:59:03.322Z,20.77
